Time;durP1;ratioP1;P1;durP2;ratioP2;P2;SDS_P1;SDS_P2;PMS_P1;PMS_P2;Temp;Humidity;BMP_temperature;BMP_pressure;BME280_temperature;BME280_humidity;BME280_pressure;Samples;Min_cycle;Max_cycle;Signal;HPM_P1;HPM_P2
2022/12/01 00:01:08;;;;;;;27.83;18.43;;;;;;;;;;5044496;28;20237;-63
2022/12/01 00:03:35;;;;;;;27.77;18.20;;;;;;;;;;5046754;28;20331;-64
2022/12/01 00:06:16;;;;;;;24.43;15.33;;;;;;;;;;5043805;28;20285;-62
2022/12/01 00:10:24;;;;;;;25.53;16.03;;;;;;;;;;5038019;28;20206;-64
2022/12/01 00:11:33;;;;;;;28.53;17.87;;;;;;;;;;5064140;28;20350;-64
2022/12/01 00:14:01;;;;;;;26.40;17.00;;;;;;;;;;5065534;28;20221;-64
2022/12/01 00:16:28;;;;;;;32.60;18.83;;;;;;;;;;5048594;28;20327;-64
2022/12/01 00:18:56;;;;;;;28.00;18.03;;;;;;;;;;5049581;28;20194;-64
2022/12/01 00:21:24;;;;;;;28.17;17.43;;;;;;;;;;5052027;28;20324;-63
2022/12/01 00:23:53;;;;;;;25.03;16.47;;;;;;;;;;5048118;28;20248;-64
2022/12/01 00:26:21;;;;;;;26.10;17.73;;;;;;;;;;5049651;28;20205;-64
2022/12/01 00:28:49;;;;;;;30.37;17.93;;;;;;;;;;5047154;28;20244;-64
2022/12/01 00:31:17;;;;;;;31.57;17.53;;;;;;;;;;5046871;28;20289;-64
2022/12/01 00:33:44;;;;;;;26.73;17.70;;;;;;;;;;5061800;28;20252;-64
2022/12/01 00:36:12;;;;;;;27.67;17.93;;;;;;;;;;5061745;28;20251;-63
2022/12/01 00:38:39;;;;;;;28.90;17.77;;;;;;;;;;5059702;28;20226;-64
2022/12/01 00:41:07;;;;;;;28.60;17.97;;;;;;;;;;5057816;28;20197;-64
2022/12/01 00:43:34;;;;;;;26.50;18.37;;;;;;;;;;5053519;28;20309;-63
2022/12/01 00:46:02;;;;;;;31.33;19.20;;;;;;;;;;5041615;28;20594;-64
2022/12/01 00:48:29;;;;;;;30.57;18.70;;;;;;;;;;5046891;28;20259;-64
2022/12/01 00:50:57;;;;;;;29.57;17.97;;;;;;;;;;5029523;28;20225;-63
2022/12/01 00:53:24;;;;;;;32.53;19.13;;;;;;;;;;5044716;28;20221;-64
2022/12/01 00:55:55;;;;;;;34.93;20.73;;;;;;;;;;5045901;28;20233;-63
2022/12/01 00:58:23;;;;;;;31.33;18.87;;;;;;;;;;5021916;28;20205;-63
2022/12/01 01:00:58;;;;;;;31.00;19.53;;;;;;;;;;5030989;28;20292;-64
2022/12/01 01:03:26;;;;;;;32.40;19.57;;;;;;;;;;5044526;28;20233;-63
2022/12/01 01:05:53;;;;;;;30.30;19.43;;;;;;;;;;5029984;28;20237;-63
2022/12/01 01:08:21;;;;;;;33.63;20.50;;;;;;;;;;5043098;28;20479;-63
2022/12/01 01:10:48;;;;;;;32.60;19.00;;;;;;;;;;5025348;28;20292;-63
2022/12/01 01:13:16;;;;;;;35.47;21.13;;;;;;;;;;5043870;28;20600;-64
2022/12/01 01:15:44;;;;;;;36.53;22.23;;;;;;;;;;5045730;28;20229;-63
2022/12/01 01:18:11;;;;;;;35.37;21.77;;;;;;;;;;5061409;28;20210;-64
2022/12/01 01:20:39;;;;;;;35.23;19.77;;;;;;;;;;5045861;28;20237;-63
2022/12/01 01:23:06;;;;;;;33.53;20.83;;;;;;;;;;5047527;28;20249;-63
2022/12/01 01:25:34;;;;;;;39.20;21.67;;;;;;;;;;5062819;28;20236;-63
2022/12/01 01:28:01;;;;;;;36.07;21.73;;;;;;;;;;5030495;28;20225;-64
2022/12/01 01:30:28;;;;;;;35.73;22.37;;;;;;;;;;5030722;28;20324;-63
2022/12/01 01:32:56;;;;;;;32.23;20.00;;;;;;;;;;5038653;28;20240;-64
2022/12/01 01:35:23;;;;;;;33.17;19.87;;;;;;;;;;4978362;28;1309161;-63
2022/12/01 01:37:51;;;;;;;34.13;20.23;;;;;;;;;;5030319;28;20217;-64
2022/12/01 01:40:18;;;;;;;34.97;20.23;;;;;;;;;;5026946;28;20255;-63
2022/12/01 01:42:45;;;;;;;35.57;20.33;;;;;;;;;;5033482;28;20386;-64
2022/12/01 01:45:21;;;;;;;32.57;19.17;;;;;;;;;;5050816;28;20209;-63
2022/12/01 01:47:49;;;;;;;33.27;20.10;;;;;;;;;;5051094;28;20232;-63
2022/12/01 01:50:19;;;;;;;35.53;20.93;;;;;;;;;;5042929;28;20209;-64
2022/12/01 01:52:57;;;;;;;34.80;19.17;;;;;;;;;;5032160;28;20304;-63
2022/12/01 01:55:25;;;;;;;30.07;18.93;;;;;;;;;;5031230;28;20267;-63
2022/12/01 01:57:52;;;;;;;30.80;18.87;;;;;;;;;;5029633;28;20263;-63
2022/12/01 02:00:20;;;;;;;32.73;19.13;;;;;;;;;;5047737;28;20194;-64
2022/12/01 02:02:49;;;;;;;36.00;19.47;;;;;;;;;;5026331;28;20325;-64
2022/12/01 02:05:21;;;;;;;33.70;19.80;;;;;;;;;;5030792;28;20221;-63
2022/12/01 02:07:50;;;;;;;33.13;19.97;;;;;;;;;;5028913;28;20289;-64
2022/12/01 02:10:21;;;;;;;33.23;20.03;;;;;;;;;;5028442;28;20237;-63
2022/12/01 02:12:54;;;;;;;32.00;19.80;;;;;;;;;;5050518;28;20263;-63
2022/12/01 02:15:26;;;;;;;31.40;18.67;;;;;;;;;;5028211;28;20431;-63
2022/12/01 02:17:57;;;;;;;30.90;18.30;;;;;;;;;;5030700;28;20201;-62
2022/12/01 02:20:51;;;;;;;34.60;18.57;;;;;;;;;;5049102;28;21554;-63
2022/12/01 02:23:34;;;;;;;31.90;19.07;;;;;;;;;;5028589;28;20230;-63
2022/12/01 02:26:20;;;;;;;31.17;19.17;;;;;;;;;;5027785;28;20768;-64
2022/12/01 02:29:04;;;;;;;32.47;19.93;;;;;;;;;;5028667;28;20651;-63
2022/12/01 02:31:46;;;;;;;33.57;19.70;;;;;;;;;;5027326;28;20205;-63
2022/12/01 02:34:34;;;;;;;31.70;18.90;;;;;;;;;;5042950;28;20230;-63
2022/12/01 02:37:14;;;;;;;31.63;19.60;;;;;;;;;;5045870;28;20302;-63
2022/12/01 02:39:46;;;;;;;31.97;20.30;;;;;;;;;;5050487;28;20301;-63
2022/12/01 02:45:09;;;;;;;31.70;18.33;;;;;;;;;;5051937;28;20210;-63
2022/12/01 02:47:38;;;;;;;32.00;18.93;;;;;;;;;;5025620;28;20384;-63
2022/12/01 02:50:07;;;;;;;29.37;18.20;;;;;;;;;;5046687;28;20671;-63
2022/12/01 02:52:34;;;;;;;30.97;18.23;;;;;;;;;;5026619;28;20221;-63
2022/12/01 02:55:02;;;;;;;33.13;18.73;;;;;;;;;;5050017;28;20228;-63
2022/12/01 02:57:30;;;;;;;29.97;17.60;;;;;;;;;;5033036;28;20214;-63
2022/12/01 02:59:58;;;;;;;29.90;17.57;;;;;;;;;;5030910;28;20304;-63
2022/12/01 03:02:43;;;;;;;30.43;17.70;;;;;;;;;;5048834;28;20233;-63
2022/12/01 03:05:17;;;;;;;30.37;17.43;;;;;;;;;;5024286;28;20221;-63
2022/12/01 03:07:45;;;;;;;28.40;17.23;;;;;;;;;;5022644;28;20205;-64
2022/12/01 03:10:19;;;;;;;22.77;14.33;;;;;;;;;;5040559;28;20290;-63
2022/12/01 03:12:56;;;;;;;29.37;17.23;;;;;;;;;;5039962;28;21143;-63
2022/12/01 03:15:34;;;;;;;30.57;18.50;;;;;;;;;;5029296;28;20801;-63
2022/12/01 03:18:05;;;;;;;29.47;16.00;;;;;;;;;;5036859;28;20237;-63
2022/12/01 03:20:38;;;;;;;26.83;16.10;;;;;;;;;;5056367;28;20232;-63
2022/12/01 03:23:09;;;;;;;27.87;16.80;;;;;;;;;;5051220;28;20217;-62
2022/12/01 03:25:39;;;;;;;27.47;16.00;;;;;;;;;;5060064;28;20262;-63
2022/12/01 03:28:08;;;;;;;27.87;16.43;;;;;;;;;;5025265;28;20242;-63
2022/12/01 03:30:52;;;;;;;28.33;16.70;;;;;;;;;;5044058;28;20304;-63
2022/12/01 03:33:23;;;;;;;26.43;15.47;;;;;;;;;;5031308;28;20225;-62
2022/12/01 03:35:54;;;;;;;29.47;15.67;;;;;;;;;;5035718;28;20239;-63
2022/12/01 03:38:23;;;;;;;26.30;14.33;;;;;;;;;;5041987;28;20256;-62
2022/12/01 03:40:56;;;;;;;24.60;13.97;;;;;;;;;;5048903;28;20301;-63
2022/12/01 03:43:26;;;;;;;26.93;14.70;;;;;;;;;;5048208;28;20705;-63
2022/12/01 03:45:53;;;;;;;23.17;13.80;;;;;;;;;;5022741;28;20210;-63
2022/12/01 03:48:22;;;;;;;22.30;13.27;;;;;;;;;;5049388;28;20213;-64
2022/12/01 03:50:56;;;;;;;22.10;13.43;;;;;;;;;;5027374;28;20300;-63
2022/12/01 03:53:27;;;;;;;22.70;13.67;;;;;;;;;;5021181;28;20229;-62
2022/12/01 03:56:01;;;;;;;22.77;14.50;;;;;;;;;;5043966;28;20308;-63
2022/12/01 03:58:34;;;;;;;22.17;13.57;;;;;;;;;;5044130;28;20204;-63
2022/12/01 04:01:03;;;;;;;22.53;13.90;;;;;;;;;;5036352;28;20212;-63
2022/12/01 04:03:31;;;;;;;21.40;12.80;;;;;;;;;;5026365;28;20397;-64
2022/12/01 04:05:59;;;;;;;20.20;12.20;;;;;;;;;;5028868;28;20666;-63
2022/12/01 04:08:29;;;;;;;25.17;14.33;;;;;;;;;;5031788;28;20226;-63
2022/12/01 04:10:56;;;;;;;26.47;14.90;;;;;;;;;;5025356;28;20254;-63
2022/12/01 04:13:24;;;;;;;32.83;17.47;;;;;;;;;;5034457;28;20316;-64
2022/12/01 04:15:52;;;;;;;44.63;23.83;;;;;;;;;;5026526;28;20238;-63
2022/12/01 04:18:21;;;;;;;44.23;24.70;;;;;;;;;;5031676;28;20197;-61
2022/12/01 04:20:49;;;;;;;67.30;36.50;;;;;;;;;;5047165;28;20213;-63
2022/12/01 04:26:03;;;;;;;44.27;25.83;;;;;;;;;;5073098;28;20706;-65
2022/12/01 04:28:31;;;;;;;40.13;24.30;;;;;;;;;;5044485;28;20227;-63
2022/12/01 04:30:59;;;;;;;46.33;26.20;;;;;;;;;;5051901;28;20197;-63
2022/12/01 04:33:26;;;;;;;65.27;37.27;;;;;;;;;;5048255;28;20233;-63
2022/12/01 04:35:57;;;;;;;46.47;28.33;;;;;;;;;;5051720;28;20325;-63
2022/12/01 04:38:25;;;;;;;64.10;36.23;;;;;;;;;;5029652;28;20288;-63
2022/12/01 04:40:57;;;;;;;84.47;47.33;;;;;;;;;;5024053;28;20681;-62
2022/12/01 04:43:24;;;;;;;48.70;28.57;;;;;;;;;;5032916;28;20229;-63
2022/12/01 04:45:52;;;;;;;29.47;17.17;;;;;;;;;;5052053;28;20217;-63
2022/12/01 04:48:19;;;;;;;33.47;22.37;;;;;;;;;;5035300;28;20297;-62
2022/12/01 04:50:48;;;;;;;29.07;17.53;;;;;;;;;;5031352;28;20282;-62
2022/12/01 04:53:15;;;;;;;28.53;16.50;;;;;;;;;;5026428;28;20236;-63
2022/12/01 04:55:43;;;;;;;25.13;15.93;;;;;;;;;;5029835;28;20213;-64
2022/12/01 04:58:10;;;;;;;25.67;14.93;;;;;;;;;;5024452;28;20209;-63
2022/12/01 05:00:38;;;;;;;26.17;16.13;;;;;;;;;;5030754;28;20607;-63
2022/12/01 05:03:06;;;;;;;26.43;16.10;;;;;;;;;;5026294;28;20275;-63
2022/12/01 05:05:41;;;;;;;26.50;15.23;;;;;;;;;;5047198;28;20204;-63
2022/12/01 05:08:08;;;;;;;25.30;15.27;;;;;;;;;;5026140;28;23067;-63
2022/12/01 05:10:36;;;;;;;27.00;16.03;;;;;;;;;;5025520;28;20213;-63
2022/12/01 05:13:04;;;;;;;26.80;15.67;;;;;;;;;;5039542;28;20225;-63
2022/12/01 05:15:32;;;;;;;25.67;15.73;;;;;;;;;;5015278;28;20335;-63
2022/12/01 05:17:59;;;;;;;28.70;16.20;;;;;;;;;;5031339;28;20296;-63
2022/12/01 05:23:13;;;;;;;23.57;15.13;;;;;;;;;;5077987;28;20264;-63
2022/12/01 05:25:43;;;;;;;25.83;16.23;;;;;;;;;;5052385;28;20288;-62
2022/12/01 05:28:10;;;;;;;27.53;17.90;;;;;;;;;;5029640;28;20297;-62
2022/12/01 05:30:38;;;;;;;25.23;14.63;;;;;;;;;;5047716;28;20305;-63
2022/12/01 05:33:05;;;;;;;27.87;15.47;;;;;;;;;;5024325;28;20290;-64
2022/12/01 05:35:33;;;;;;;26.33;15.90;;;;;;;;;;5021158;28;25403;-62
2022/12/01 05:38:03;;;;;;;27.30;16.73;;;;;;;;;;5014873;28;21543;-63
2022/12/01 05:40:34;;;;;;;27.00;16.93;;;;;;;;;;5030810;28;20597;-63
2022/12/01 05:43:02;;;;;;;30.47;17.10;;;;;;;;;;5016202;28;20496;-62
2022/12/01 05:45:29;;;;;;;23.03;14.37;;;;;;;;;;5028206;28;20312;-63
2022/12/01 05:47:57;;;;;;;24.13;15.13;;;;;;;;;;5030291;28;20213;-62
2022/12/01 05:50:26;;;;;;;23.20;15.20;;;;;;;;;;5016191;28;20607;-63
2022/12/01 05:52:53;;;;;;;24.93;14.37;;;;;;;;;;5018490;28;20229;-63
2022/12/01 05:55:21;;;;;;;21.53;14.17;;;;;;;;;;5022655;28;20525;-63
2022/12/01 05:57:49;;;;;;;23.57;16.10;;;;;;;;;;5028985;28;20216;-63
2022/12/01 06:00:16;;;;;;;24.57;16.30;;;;;;;;;;5032128;28;20611;-63
2022/12/01 06:02:44;;;;;;;24.40;15.07;;;;;;;;;;5031377;28;20296;-63
2022/12/01 06:05:11;;;;;;;24.00;15.07;;;;;;;;;;5028598;28;20711;-63
2022/12/01 06:07:39;;;;;;;26.23;14.77;;;;;;;;;;5032537;28;20201;-63
2022/12/01 06:10:08;;;;;;;24.93;15.07;;;;;;;;;;5034162;28;20344;-63
2022/12/01 06:12:35;;;;;;;22.13;13.83;;;;;;;;;;5032722;28;20288;-63
2022/12/01 06:15:06;;;;;;;23.90;14.83;;;;;;;;;;5020296;28;20213;-63
2022/12/01 06:17:34;;;;;;;23.43;14.03;;;;;;;;;;5041642;28;20213;-63
2022/12/01 06:20:08;;;;;;;25.10;14.50;;;;;;;;;;5033318;28;20205;-63
2022/12/01 06:22:35;;;;;;;22.17;13.97;;;;;;;;;;5026205;28;20664;-63
2022/12/01 06:25:03;;;;;;;24.73;14.33;;;;;;;;;;5024940;28;20789;-63
2022/12/01 06:27:30;;;;;;;22.40;13.90;;;;;;;;;;5038779;28;20216;-63
2022/12/01 06:29:57;;;;;;;22.83;13.30;;;;;;;;;;5027284;28;20211;-63
2022/12/01 06:32:25;;;;;;;21.83;14.37;;;;;;;;;;5041035;28;20586;-62
2022/12/01 06:34:52;;;;;;;23.00;13.77;;;;;;;;;;5028206;28;20572;-63
2022/12/01 06:37:20;;;;;;;21.53;13.53;;;;;;;;;;5040379;28;20233;-63
2022/12/01 06:39:47;;;;;;;21.50;12.90;;;;;;;;;;5040741;28;20572;-63
2022/12/01 06:42:15;;;;;;;18.77;12.40;;;;;;;;;;5022585;28;20319;-63
2022/12/01 06:44:43;;;;;;;21.83;13.47;;;;;;;;;;5024117;28;20249;-62
2022/12/01 06:47:10;;;;;;;21.97;12.47;;;;;;;;;;5024908;28;20288;-63
2022/12/01 06:49:38;;;;;;;23.10;13.33;;;;;;;;;;5017573;28;20235;-63
2022/12/01 06:52:06;;;;;;;22.27;14.13;;;;;;;;;;5026468;28;20348;-63
2022/12/01 06:54:36;;;;;;;21.97;14.63;;;;;;;;;;5036004;28;20229;-63
2022/12/01 06:57:04;;;;;;;21.17;11.73;;;;;;;;;;5026835;28;20229;-63
2022/12/01 06:59:31;;;;;;;18.23;10.50;;;;;;;;;;5033937;28;20205;-62
2022/12/01 07:01:59;;;;;;;21.97;10.63;;;;;;;;;;5029922;28;20201;-63
2022/12/01 07:04:26;;;;;;;17.53;10.33;;;;;;;;;;5027788;28;20268;-63
2022/12/01 07:06:54;;;;;;;15.33;10.17;;;;;;;;;;5017471;28;20213;-62
2022/12/01 07:09:22;;;;;;;16.13;10.40;;;;;;;;;;5050671;28;20248;-62
2022/12/01 07:11:49;;;;;;;19.63;11.03;;;;;;;;;;5023096;28;20281;-63
2022/12/01 07:14:23;;;;;;;15.47;10.50;;;;;;;;;;5040407;28;20360;-62
2022/12/01 07:16:50;;;;;;;16.20;11.07;;;;;;;;;;5040741;28;20316;-62
2022/12/01 07:19:18;;;;;;;18.87;11.20;;;;;;;;;;5048110;28;20204;-62
2022/12/01 07:21:45;;;;;;;22.17;12.47;;;;;;;;;;5050517;28;20229;-62
2022/12/01 07:24:13;;;;;;;22.93;13.33;;;;;;;;;;5050606;28;20252;-62
2022/12/01 07:26:41;;;;;;;18.60;11.73;;;;;;;;;;5059030;28;20304;-63
2022/12/01 07:29:08;;;;;;;20.20;12.60;;;;;;;;;;5036922;28;20280;-63
2022/12/01 07:31:36;;;;;;;20.20;11.97;;;;;;;;;;5040808;28;20209;-63
2022/12/01 07:34:04;;;;;;;19.30;11.93;;;;;;;;;;5025860;28;20670;-64
2022/12/01 07:36:32;;;;;;;19.90;11.83;;;;;;;;;;5027493;28;20237;-62
2022/12/01 07:38:59;;;;;;;21.83;13.47;;;;;;;;;;5013154;28;20330;-63
2022/12/01 07:41:27;;;;;;;21.50;13.97;;;;;;;;;;5036413;28;20202;-63
2022/12/01 07:43:55;;;;;;;23.80;13.93;;;;;;;;;;5036492;28;20225;-63
2022/12/01 07:46:24;;;;;;;19.17;13.20;;;;;;;;;;5032297;28;20285;-62
2022/12/01 07:48:53;;;;;;;21.30;12.50;;;;;;;;;;5030687;28;20213;-63
2022/12/01 07:51:21;;;;;;;21.57;12.67;;;;;;;;;;5027512;28;20705;-62
2022/12/01 07:53:50;;;;;;;21.87;14.30;;;;;;;;;;5028828;28;20225;-62
2022/12/01 07:56:18;;;;;;;20.97;12.93;;;;;;;;;;5027866;28;20241;-63
2022/12/01 07:58:45;;;;;;;22.03;13.03;;;;;;;;;;5027475;28;20826;-63
2022/12/01 08:01:14;;;;;;;24.50;14.97;;;;;;;;;;5043806;28;20284;-62
2022/12/01 08:03:41;;;;;;;23.70;13.93;;;;;;;;;;5020054;28;20230;-63
2022/12/01 08:06:09;;;;;;;22.40;13.50;;;;;;;;;;5019781;28;20206;-63
2022/12/01 08:08:39;;;;;;;21.77;13.50;;;;;;;;;;5038209;28;20288;-63
2022/12/01 08:11:09;;;;;;;19.83;12.17;;;;;;;;;;5023638;28;20210;-63
2022/12/01 08:13:37;;;;;;;19.50;12.37;;;;;;;;;;5039827;28;20229;-63
2022/12/01 08:16:06;;;;;;;22.13;12.70;;;;;;;;;;5016689;28;20768;-63
2022/12/01 08:18:34;;;;;;;20.57;12.07;;;;;;;;;;5028315;28;20208;-63
2022/12/01 08:21:02;;;;;;;21.47;13.33;;;;;;;;;;5026669;28;20259;-62
2022/12/01 08:23:29;;;;;;;19.37;12.17;;;;;;;;;;5056107;28;20225;-62
2022/12/01 08:26:07;;;;;;;20.10;12.73;;;;;;;;;;5044147;28;20293;-62
2022/12/01 08:28:35;;;;;;;19.63;12.23;;;;;;;;;;5055141;28;20225;-64
2022/12/01 08:31:13;;;;;;;21.90;14.70;;;;;;;;;;5063646;28;20193;-62
2022/12/01 08:33:40;;;;;;;23.43;14.23;;;;;;;;;;5035697;28;20223;-62
2022/12/01 08:36:08;;;;;;;20.87;13.13;;;;;;;;;;5040303;28;20236;-64
2022/12/01 08:38:36;;;;;;;19.70;13.07;;;;;;;;;;5041465;28;20204;-64
2022/12/01 08:41:05;;;;;;;22.07;14.20;;;;;;;;;;5026150;28;20310;-63
2022/12/01 08:43:32;;;;;;;24.10;14.63;;;;;;;;;;5028056;28;20333;-63
2022/12/01 08:46:20;;;;;;;25.80;15.87;;;;;;;;;;5029651;28;20205;-62
2022/12/01 08:48:47;;;;;;;21.80;13.33;;;;;;;;;;5040984;28;21192;-62
2022/12/01 08:51:17;;;;;;;19.00;12.40;;;;;;;;;;5045557;28;20293;-61
2022/12/01 08:53:45;;;;;;;20.13;12.70;;;;;;;;;;5038094;28;20229;-61
2022/12/01 08:56:20;;;;;;;20.47;12.70;;;;;;;;;;5024461;28;20691;-64
2022/12/01 08:58:49;;;;;;;20.73;12.47;;;;;;;;;;5032835;28;20304;-61
2022/12/01 09:01:17;;;;;;;20.13;12.73;;;;;;;;;;5029547;28;20231;-62
2022/12/01 09:03:44;;;;;;;19.10;11.80;;;;;;;;;;5028633;28;20229;-62
2022/12/01 09:06:16;;;;;;;21.20;13.37;;;;;;;;;;5031311;28;20296;-63
2022/12/01 09:08:44;;;;;;;18.70;12.23;;;;;;;;;;5022821;28;20348;-64
2022/12/01 09:11:13;;;;;;;18.80;12.53;;;;;;;;;;5041369;28;20215;-62
2022/12/01 09:13:41;;;;;;;20.83;12.80;;;;;;;;;;5029342;28;20452;-64
2022/12/01 09:16:10;;;;;;;19.37;11.93;;;;;;;;;;5027905;28;20736;-62
2022/12/01 09:18:38;;;;;;;20.33;12.17;;;;;;;;;;5049089;28;20667;-62
2022/12/01 09:21:10;;;;;;;18.23;10.97;;;;;;;;;;5043609;28;20620;-64
2022/12/01 09:23:38;;;;;;;18.73;11.90;;;;;;;;;;5062156;28;20221;-64
2022/12/01 09:26:06;;;;;;;17.07;11.17;;;;;;;;;;5055402;28;20213;-63
2022/12/01 09:28:39;;;;;;;16.80;11.10;;;;;;;;;;5032658;28;20210;-64
2022/12/01 09:31:08;;;;;;;16.07;10.70;;;;;;;;;;5046235;28;20237;-64
2022/12/01 09:33:35;;;;;;;19.43;13.07;;;;;;;;;;5058034;28;20610;-63
2022/12/01 09:36:03;;;;;;;17.07;11.00;;;;;;;;;;5049945;28;20237;-64
2022/12/01 09:38:32;;;;;;;19.20;11.97;;;;;;;;;;5038465;28;20288;-64
2022/12/01 09:41:01;;;;;;;20.03;12.50;;;;;;;;;;5050960;28;20753;-63
2022/12/01 09:43:40;;;;;;;18.13;11.63;;;;;;;;;;5024527;28;20222;-64
2022/12/01 09:46:12;;;;;;;19.63;11.60;;;;;;;;;;5029409;28;20234;-63
2022/12/01 09:48:42;;;;;;;20.07;11.53;;;;;;;;;;5033670;28;20209;-63
2022/12/01 09:51:17;;;;;;;21.10;12.87;;;;;;;;;;5027427;28;20209;-63
2022/12/01 09:53:45;;;;;;;21.77;13.40;;;;;;;;;;5033723;28;20761;-63
2022/12/01 09:56:23;;;;;;;19.97;12.80;;;;;;;;;;5045955;28;20288;-63
2022/12/01 09:58:55;;;;;;;19.87;12.83;;;;;;;;;;5031577;28;20201;-63
2022/12/01 10:01:26;;;;;;;19.17;12.03;;;;;;;;;;5046568;28;20297;-63
2022/12/01 10:03:57;;;;;;;20.53;12.73;;;;;;;;;;5039185;28;20339;-64
2022/12/01 10:06:29;;;;;;;25.97;15.43;;;;;;;;;;5027160;28;20288;-63
2022/12/01 10:09:03;;;;;;;23.03;14.20;;;;;;;;;;5029725;28;20225;-64
2022/12/01 10:11:36;;;;;;;23.47;14.80;;;;;;;;;;5027781;28;20209;-64
2022/12/01 10:14:04;;;;;;;29.47;16.37;;;;;;;;;;5033832;28;20255;-63
2022/12/01 10:16:37;;;;;;;33.97;18.87;;;;;;;;;;5030793;28;20225;-64
2022/12/01 10:19:12;;;;;;;25.00;14.67;;;;;;;;;;5028771;28;20208;-64
2022/12/01 10:21:42;;;;;;;29.83;16.53;;;;;;;;;;5035967;28;20684;-64
2022/12/01 10:24:22;;;;;;;24.60;14.90;;;;;;;;;;5029774;28;20240;-64
2022/12/01 10:27:05;;;;;;;32.37;17.93;;;;;;;;;;5036640;28;20230;-63
2022/12/01 10:29:46;;;;;;;27.90;15.30;;;;;;;;;;5050965;28;20296;-63
2022/12/01 10:32:28;;;;;;;24.47;14.00;;;;;;;;;;5029637;28;21052;-64
2022/12/01 10:34:57;;;;;;;26.33;14.73;;;;;;;;;;5049002;28;20209;-64
2022/12/01 10:37:25;;;;;;;26.47;14.93;;;;;;;;;;5042042;28;20223;-64
2022/12/01 10:39:54;;;;;;;26.30;14.80;;;;;;;;;;5042838;28;20288;-64
2022/12/01 10:42:40;;;;;;;16.13;10.00;;;;;;;;;;5032652;28;20208;-64
2022/12/01 10:45:28;;;;;;;14.37;9.10;;;;;;;;;;5038108;28;20981;-64
2022/12/01 10:48:08;;;;;;;14.53;9.27;;;;;;;;;;5040002;28;20206;-63
2022/12/01 10:50:36;;;;;;;22.63;13.13;;;;;;;;;;5035418;28;20292;-64
2022/12/01 10:53:04;;;;;;;19.63;11.73;;;;;;;;;;5031375;28;20583;-64
2022/12/01 10:55:39;;;;;;;18.40;11.70;;;;;;;;;;5049728;28;20376;-64
2022/12/01 10:58:14;;;;;;;15.70;10.83;;;;;;;;;;5048379;28;20226;-64
2022/12/01 11:00:45;;;;;;;15.37;10.70;;;;;;;;;;5034808;28;20307;-63
2022/12/01 11:03:31;;;;;;;16.07;9.63;;;;;;;;;;5049662;28;20225;-63
2022/12/01 11:06:00;;;;;;;17.17;10.60;;;;;;;;;;5029801;28;20688;-63
2022/12/01 11:08:38;;;;;;;16.27;10.23;;;;;;;;;;5036650;28;20224;-64
2022/12/01 11:11:29;;;;;;;17.73;10.43;;;;;;;;;;5036121;28;20220;-64
2022/12/01 11:13:58;;;;;;;17.20;9.90;;;;;;;;;;5039168;28;20608;-64
2022/12/01 11:16:38;;;;;;;16.90;10.33;;;;;;;;;;5036890;28;20305;-63
2022/12/01 11:19:28;;;;;;;17.47;10.77;;;;;;;;;;5045676;28;20258;-64
2022/12/01 11:21:57;;;;;;;15.47;9.23;;;;;;;;;;5056483;28;20240;-64
2022/12/01 11:24:29;;;;;;;14.70;9.20;;;;;;;;;;5046238;28;20249;-63
2022/12/01 11:26:58;;;;;;;15.37;10.77;;;;;;;;;;5033947;28;20205;-64
2022/12/01 11:29:34;;;;;;;15.13;9.40;;;;;;;;;;5040674;28;20292;-64
2022/12/01 11:32:11;;;;;;;16.57;9.77;;;;;;;;;;5044627;28;20213;-64
2022/12/01 11:34:39;;;;;;;18.80;11.07;;;;;;;;;;5027753;28;21116;-63
2022/12/01 11:37:07;;;;;;;16.07;10.07;;;;;;;;;;5019908;28;21324;-63
2022/12/01 11:39:35;;;;;;;15.40;10.33;;;;;;;;;;5018405;28;20324;-64
2022/12/01 11:42:14;;;;;;;15.10;9.90;;;;;;;;;;5028059;28;20309;-64
2022/12/01 11:44:53;;;;;;;17.47;10.17;;;;;;;;;;5021834;28;20352;-64
2022/12/01 11:47:23;;;;;;;14.63;10.10;;;;;;;;;;5033099;28;20209;-63
2022/12/01 11:49:59;;;;;;;15.00;10.13;;;;;;;;;;5026942;28;20558;-64
2022/12/01 11:52:31;;;;;;;17.40;10.47;;;;;;;;;;5050241;28;20336;-63
2022/12/01 11:55:02;;;;;;;18.27;11.50;;;;;;;;;;5048267;28;20576;-63
2022/12/01 11:57:37;;;;;;;17.33;11.33;;;;;;;;;;5033551;28;20232;-63
2022/12/01 12:00:20;;;;;;;17.10;10.03;;;;;;;;;;5042468;28;20260;-63
2022/12/01 12:03:08;;;;;;;17.00;10.23;;;;;;;;;;5036073;28;20417;-64
2022/12/01 12:05:48;;;;;;;18.63;10.90;;;;;;;;;;5050021;28;20208;-64
2022/12/01 12:08:21;;;;;;;16.87;10.53;;;;;;;;;;5040846;28;20206;-63
2022/12/01 12:10:49;;;;;;;19.43;11.33;;;;;;;;;;5046447;28;20210;-63
2022/12/01 12:13:16;;;;;;;20.40;12.57;;;;;;;;;;5051473;28;20316;-64
2022/12/01 12:15:56;;;;;;;21.17;11.33;;;;;;;;;;5045727;28;20213;-63
2022/12/01 12:18:24;;;;;;;23.17;13.00;;;;;;;;;;5039547;28;20225;-64
2022/12/01 12:20:51;;;;;;;41.47;24.70;;;;;;;;;;5050972;28;20202;-63
2022/12/01 12:23:25;;;;;;;19.07;11.77;;;;;;;;;;5047042;28;20263;-63
2022/12/01 12:25:58;;;;;;;26.27;15.23;;;;;;;;;;5044640;28;20213;-63
2022/12/01 12:28:29;;;;;;;22.17;13.13;;;;;;;;;;5035548;28;20225;-63
2022/12/01 12:31:03;;;;;;;22.97;14.33;;;;;;;;;;5041198;28;20210;-63
2022/12/01 12:33:36;;;;;;;21.23;12.50;;;;;;;;;;5059724;28;20225;-63
2022/12/01 12:36:09;;;;;;;38.23;21.93;;;;;;;;;;5060971;28;20213;-63
2022/12/01 12:38:46;;;;;;;36.17;21.37;;;;;;;;;;5048270;28;20715;-63
2022/12/01 12:41:36;;;;;;;24.70;13.87;;;;;;;;;;5039576;28;20201;-61
2022/12/01 12:44:17;;;;;;;33.03;18.27;;;;;;;;;;5028475;28;20850;-62
2022/12/01 12:46:45;;;;;;;27.27;15.37;;;;;;;;;;5032376;28;20295;-62
2022/12/01 12:49:35;;;;;;;27.87;15.83;;;;;;;;;;5031019;28;20205;-62
2022/12/01 12:52:08;;;;;;;48.67;26.57;;;;;;;;;;5032111;28;20213;-63
2022/12/01 12:54:36;;;;;;;33.30;18.40;;;;;;;;;;5033033;28;20324;-62
2022/12/01 12:57:06;;;;;;;29.00;16.93;;;;;;;;;;5031061;28;20208;-62
2022/12/01 12:59:40;;;;;;;24.70;13.77;;;;;;;;;;5041399;28;20233;-62
2022/12/01 13:02:19;;;;;;;28.90;16.53;;;;;;;;;;5037796;28;20212;-63
2022/12/01 13:05:09;;;;;;;29.27;14.93;;;;;;;;;;5033517;28;20233;-63
2022/12/01 13:07:43;;;;;;;26.03;14.03;;;;;;;;;;5025138;28;20746;-62
2022/12/01 13:10:21;;;;;;;28.80;17.10;;;;;;;;;;5037385;28;20211;-63
2022/12/01 13:12:54;;;;;;;27.30;14.30;;;;;;;;;;5037168;28;20492;-63
2022/12/01 13:15:22;;;;;;;23.90;12.87;;;;;;;;;;5030413;28;20229;-63
2022/12/01 13:18:15;;;;;;;27.63;15.47;;;;;;;;;;5061583;28;20278;-62
2022/12/01 13:20:42;;;;;;;29.20;15.70;;;;;;;;;;5035744;28;20233;-62
2022/12/01 13:23:13;;;;;;;26.50;14.40;;;;;;;;;;5048227;28;20257;-61
2022/12/01 13:25:42;;;;;;;32.23;16.83;;;;;;;;;;5044839;28;20251;-62
2022/12/01 13:28:25;;;;;;;30.73;16.53;;;;;;;;;;5044527;28;20213;-63
2022/12/01 13:31:10;;;;;;;59.10;28.70;;;;;;;;;;5046425;28;20235;-62
2022/12/01 13:33:39;;;;;;;45.20;23.23;;;;;;;;;;5051529;28;20252;-62
2022/12/01 13:36:10;;;;;;;31.10;16.57;;;;;;;;;;5032885;28;20300;-62
2022/12/01 13:38:58;;;;;;;26.63;14.27;;;;;;;;;;5030650;28;20770;-63
2022/12/01 13:41:32;;;;;;;29.23;17.20;;;;;;;;;;5029510;28;20634;-62
2022/12/01 13:44:01;;;;;;;32.80;16.40;;;;;;;;;;5046708;28;20276;-62
2022/12/01 13:46:49;;;;;;;22.50;13.47;;;;;;;;;;5025246;28;20609;-62
2022/12/01 13:49:38;;;;;;;22.97;13.67;;;;;;;;;;5045182;28;20202;-62
2022/12/01 13:52:15;;;;;;;25.23;13.50;;;;;;;;;;5041649;28;20267;-63
2022/12/01 13:55:19;;;;;;;26.10;14.40;;;;;;;;;;5026017;28;20272;-62
2022/12/01 13:58:12;;;;;;;25.43;13.40;;;;;;;;;;5026600;28;20229;-62
2022/12/01 14:00:41;;;;;;;24.87;14.20;;;;;;;;;;5045194;28;20213;-62
2022/12/01 14:03:12;;;;;;;29.63;14.80;;;;;;;;;;5038712;28;20603;-61
2022/12/01 14:05:40;;;;;;;25.93;15.13;;;;;;;;;;5039088;28;20206;-64
2022/12/01 14:08:28;;;;;;;26.90;15.50;;;;;;;;;;5028894;28;20233;-63
2022/12/01 14:11:04;;;;;;;34.17;18.23;;;;;;;;;;5032806;28;20301;-63
2022/12/01 14:13:45;;;;;;;36.67;18.97;;;;;;;;;;5029387;28;22332;-63
2022/12/01 14:16:13;;;;;;;37.77;20.80;;;;;;;;;;5043497;28;20280;-62
2022/12/01 14:18:50;;;;;;;29.70;15.20;;;;;;;;;;5029710;28;20232;-61
2022/12/01 14:21:37;;;;;;;33.80;19.17;;;;;;;;;;5045888;28;20205;-64
2022/12/01 14:24:06;;;;;;;62.70;30.43;;;;;;;;;;5038047;28;20221;-64
2022/12/01 14:26:42;;;;;;;34.83;18.37;;;;;;;;;;5027069;28;20297;-64
2022/12/01 14:29:31;;;;;;;30.43;16.47;;;;;;;;;;5025094;28;20216;-63
2022/12/01 14:32:02;;;;;;;28.60;16.17;;;;;;;;;;5022411;28;20201;-63
2022/12/01 14:34:33;;;;;;;30.37;16.77;;;;;;;;;;5024396;28;20252;-63
2022/12/01 14:37:03;;;;;;;28.37;15.70;;;;;;;;;;5016266;28;20226;-63
2022/12/01 14:39:37;;;;;;;27.10;15.67;;;;;;;;;;5044168;28;20234;-64
2022/12/01 14:42:04;;;;;;;28.30;16.33;;;;;;;;;;5011096;28;20212;-63
2022/12/01 14:44:32;;;;;;;27.97;15.37;;;;;;;;;;5022081;28;20498;-64
2022/12/01 14:47:00;;;;;;;29.40;16.37;;;;;;;;;;5023306;28;20257;-63
2022/12/01 14:49:32;;;;;;;30.30;16.47;;;;;;;;;;5034524;28;20225;-62